sensor_id;sensor_type;location;lat;lon;timestamp;pressure;altitude;pressure_sealevel;temperature;humidity
53550;BME280;67273;52.914;-0.982;2023-06-14T00:01:20;101599.00;;;23.23;44.36
53550;BME280;67273;52.914;-0.982;2023-06-14T00:03:47;101592.72;;;23.23;44.34
53550;BME280;67273;52.914;-0.982;2023-06-14T00:06:15;101597.38;;;23.22;44.54
53550;BME280;67273;52.914;-0.982;2023-06-14T00:08:41;101594.03;;;23.20;44.41
53550;BME280;67273;52.914;-0.982;2023-06-14T00:11:07;101602.53;;;23.19;44.40
53550;BME280;67273;52.914;-0.982;2023-06-14T00:13:32;101600.03;;;23.17;44.54
53550;BME280;67273;52.914;-0.982;2023-06-14T00:15:58;101599.16;;;23.16;44.70
53550;BME280;67273;52.914;-0.982;2023-06-14T00:18:24;101600.50;;;23.14;44.59
53550;BME280;67273;52.914;-0.982;2023-06-14T00:20:50;101601.34;;;23.14;44.56
53550;BME280;67273;52.914;-0.982;2023-06-14T00:23:18;101602.19;;;23.15;44.52
53550;BME280;67273;52.914;-0.982;2023-06-14T00:25:44;101598.84;;;23.13;44.49
53550;BME280;67273;52.914;-0.982;2023-06-14T00:28:10;101608.16;;;23.12;44.72
53550;BME280;67273;52.914;-0.982;2023-06-14T00:30:36;101605.66;;;23.10;44.68
53550;BME280;67273;52.914;-0.982;2023-06-14T00:33:01;101591.59;;;23.07;44.50
53550;BME280;67273;52.914;-0.982;2023-06-14T00:35:27;101590.53;;;23.08;44.65
53550;BME280;67273;52.914;-0.982;2023-06-14T00:37:53;101599.00;;;23.06;44.68
53550;BME280;67273;52.914;-0.982;2023-06-14T00:40:21;101599.25;;;23.05;44.64
53550;BME280;67273;52.914;-0.982;2023-06-14T00:42:47;101587.69;;;23.03;44.68
53550;BME280;67273;52.914;-0.982;2023-06-14T00:45:13;101588.75;;;23.02;44.66
53550;BME280;67273;52.914;-0.982;2023-06-14T00:47:41;101589.84;;;23.01;44.63
53550;BME280;67273;52.914;-0.982;2023-06-14T00:50:09;101590.91;;;23.00;44.55
53550;BME280;67273;52.914;-0.982;2023-06-14T00:52:35;101593.63;;;23.00;44.67
53550;BME280;67273;52.914;-0.982;2023-06-14T00:55:02;101591.16;;;22.98;44.57
53550;BME280;67273;52.914;-0.982;2023-06-14T00:57:30;101590.31;;;22.97;44.56
53550;BME280;67273;52.914;-0.982;2023-06-14T00:59:56;101583.16;;;22.96;44.71
53550;BME280;67273;52.914;-0.982;2023-06-14T01:02:21;101589.75;;;22.95;44.76
53550;BME280;67273;52.914;-0.982;2023-06-14T01:04:49;101593.53;;;22.94;44.62
53550;BME280;67273;52.914;-0.982;2023-06-14T01:07:25;101589.97;;;22.94;44.70
53550;BME280;67273;52.914;-0.982;2023-06-14T01:10:04;101594.03;;;22.91;44.83
53550;BME280;67273;52.914;-0.982;2023-06-14T01:12:44;101591.28;;;22.91;44.78
53550;BME280;67273;52.914;-0.982;2023-06-14T01:15:13;101589.63;;;22.90;44.79
53550;BME280;67273;52.914;-0.982;2023-06-14T01:17:40;101594.25;;;22.90;44.79
53550;BME280;67273;52.914;-0.982;2023-06-14T01:20:11;101595.59;;;22.87;44.74
53550;BME280;67273;52.914;-0.982;2023-06-14T01:22:50;101601.66;;;22.89;44.74
53550;BME280;67273;52.914;-0.982;2023-06-14T01:25:15;101603.81;;;22.87;44.67
53550;BME280;67273;52.914;-0.982;2023-06-14T01:27:43;101597.75;;;22.85;44.58
53550;BME280;67273;52.914;-0.982;2023-06-14T01:30:10;101592.75;;;22.82;44.48
53550;BME280;67273;52.914;-0.982;2023-06-14T01:32:37;101599.06;;;22.83;44.54
53550;BME280;67273;52.914;-0.982;2023-06-14T01:35:04;101594.69;;;22.82;44.43
53550;BME280;67273;52.914;-0.982;2023-06-14T01:37:30;101594.69;;;22.82;44.22
53550;BME280;67273;52.914;-0.982;2023-06-14T01:40:01;101595.75;;;22.81;44.38
53550;BME280;67273;52.914;-0.982;2023-06-14T01:42:27;101589.44;;;22.80;44.40
53550;BME280;67273;52.914;-0.982;2023-06-14T01:44:53;101591.59;;;22.78;44.51
53550;BME280;67273;52.914;-0.982;2023-06-14T01:47:20;101587.19;;;22.77;44.47
53550;BME280;67273;52.914;-0.982;2023-06-14T01:49:49;101578.97;;;22.77;44.46
53550;BME280;67273;52.914;-0.982;2023-06-14T01:52:16;101581.38;;;22.73;44.31
53550;BME280;67273;52.914;-0.982;2023-06-14T01:54:45;101584.09;;;22.73;44.21
53550;BME280;67273;52.914;-0.982;2023-06-14T01:57:15;101571.75;;;22.71;44.21
53550;BME280;67273;52.914;-0.982;2023-06-14T01:59:41;101571.75;;;22.71;44.25
53550;BME280;67273;52.914;-0.982;2023-06-14T02:02:08;101575.78;;;22.68;44.04
53550;BME280;67273;52.914;-0.982;2023-06-14T02:04:34;101570.31;;;22.68;44.16
53550;BME280;67273;52.914;-0.982;2023-06-14T02:07:00;101565.34;;;22.65;44.19
53550;BME280;67273;52.914;-0.982;2023-06-14T02:09:25;101566.41;;;22.64;44.19
53550;BME280;67273;52.914;-0.982;2023-06-14T02:11:53;101566.16;;;22.66;44.13
53550;BME280;67273;52.914;-0.982;2023-06-14T02:14:20;101562.84;;;22.64;44.33
53550;BME280;67273;52.914;-0.982;2023-06-14T02:16:47;101573.78;;;22.64;44.14
53550;BME280;67273;52.914;-0.982;2023-06-14T02:19:14;101575.94;;;22.62;44.22
53550;BME280;67273;52.914;-0.982;2023-06-14T02:21:40;101567.72;;;22.62;44.20
53550;BME280;67273;52.914;-0.982;2023-06-14T02:24:06;101577.00;;;22.61;44.22
53550;BME280;67273;52.914;-0.982;2023-06-14T02:26:32;101569.84;;;22.59;44.35
53550;BME280;67273;52.914;-0.982;2023-06-14T02:28:58;101568.22;;;22.58;44.25
53550;BME280;67273;52.914;-0.982;2023-06-14T02:31:25;101570.13;;;22.58;44.28
53550;BME280;67273;52.914;-0.982;2023-06-14T02:33:51;101563.78;;;22.57;44.37
53550;BME280;67273;52.914;-0.982;2023-06-14T02:36:16;101567.63;;;22.56;44.20
53550;BME280;67273;52.914;-0.982;2023-06-14T02:38:42;101570.38;;;22.56;44.28
53550;BME280;67273;52.914;-0.982;2023-06-14T02:41:08;101563.69;;;22.52;44.30
53550;BME280;67273;52.914;-0.982;2023-06-14T02:43:34;101563.69;;;22.52;44.13
53550;BME280;67273;52.914;-0.982;2023-06-14T02:46:00;101567.53;;;22.51;44.11
53550;BME280;67273;52.914;-0.982;2023-06-14T02:48:28;101568.59;;;22.50;43.98
53550;BME280;67273;52.914;-0.982;2023-06-14T02:50:53;101568.59;;;22.50;43.88
53550;BME280;67273;52.914;-0.982;2023-06-14T02:53:19;101577.03;;;22.49;43.99
53550;BME280;67273;52.914;-0.982;2023-06-14T02:55:46;101579.19;;;22.47;44.00
53550;BME280;67273;52.914;-0.982;2023-06-14T02:58:12;101573.47;;;22.48;43.94
53550;BME280;67273;52.914;-0.982;2023-06-14T03:00:38;101572.06;;;22.46;44.00
53550;BME280;67273;52.914;-0.982;2023-06-14T03:03:06;101570.38;;;22.45;44.02
53550;BME280;67273;52.914;-0.982;2023-06-14T03:05:40;101570.88;;;22.42;44.00
53550;BME280;67273;52.914;-0.982;2023-06-14T03:08:12;101566.25;;;22.42;44.09
53550;BME280;67273;52.914;-0.982;2023-06-14T03:10:42;101570.28;;;22.39;43.97
53550;BME280;67273;52.914;-0.982;2023-06-14T03:13:09;101572.78;;;22.41;43.97
53550;BME280;67273;52.914;-0.982;2023-06-14T03:15:37;101568.38;;;22.40;43.93
53550;BME280;67273;52.914;-0.982;2023-06-14T03:18:04;101563.16;;;22.38;44.10
53550;BME280;67273;52.914;-0.982;2023-06-14T03:20:30;101561.25;;;22.39;44.02
53550;BME280;67273;52.914;-0.982;2023-06-14T03:23:01;101556.25;;;22.36;44.12
53550;BME280;67273;52.914;-0.982;2023-06-14T03:25:27;101556.25;;;22.36;44.06
53550;BME280;67273;52.914;-0.982;2023-06-14T03:27:55;101556.25;;;22.36;44.28
53550;BME280;67273;52.914;-0.982;2023-06-14T03:30:21;101560.06;;;22.35;44.27
53550;BME280;67273;52.914;-0.982;2023-06-14T03:32:49;101560.06;;;22.35;44.20
53550;BME280;67273;52.914;-0.982;2023-06-14T03:35:17;101560.31;;;22.33;44.33
53550;BME280;67273;52.914;-0.982;2023-06-14T03:37:45;101558.41;;;22.34;44.30
53550;BME280;67273;52.914;-0.982;2023-06-14T03:40:15;101563.06;;;22.33;44.28
53550;BME280;67273;52.914;-0.982;2023-06-14T03:42:43;101556.72;;;22.33;44.35
53550;BME280;67273;52.914;-0.982;2023-06-14T03:45:10;101562.19;;;22.33;44.35
53550;BME280;67273;52.914;-0.982;2023-06-14T03:47:36;101557.22;;;22.30;44.41
53550;BME280;67273;52.914;-0.982;2023-06-14T03:50:02;101562.72;;;22.30;44.47
53550;BME280;67273;52.914;-0.982;2023-06-14T03:52:29;101562.09;;;22.28;44.56
53550;BME280;67273;52.914;-0.982;2023-06-14T03:54:55;101572.22;;;22.27;44.33
53550;BME280;67273;52.914;-0.982;2023-06-14T03:57:23;101568.41;;;22.28;44.60
53550;BME280;67273;52.914;-0.982;2023-06-14T03:59:50;101568.66;;;22.27;44.46
53550;BME280;67273;52.914;-0.982;2023-06-14T04:02:16;101558.75;;;22.26;44.61
53550;BME280;67273;52.914;-0.982;2023-06-14T04:04:43;101561.47;;;22.26;44.40
53550;BME280;67273;52.914;-0.982;2023-06-14T04:07:11;101565.06;;;22.26;44.43
53550;BME280;67273;52.914;-0.982;2023-06-14T04:09:37;101554.34;;;22.25;44.38
53550;BME280;67273;52.914;-0.982;2023-06-14T04:12:03;101561.47;;;22.26;44.61
53550;BME280;67273;52.914;-0.982;2023-06-14T04:14:32;101558.16;;;22.24;44.52
53550;BME280;67273;52.914;-0.982;2023-06-14T04:17:00;101561.72;;;22.24;44.47
53550;BME280;67273;52.914;-0.982;2023-06-14T04:19:26;101555.88;;;22.20;44.62
53550;BME280;67273;52.914;-0.982;2023-06-14T04:21:53;101563.63;;;22.24;44.63
53550;BME280;67273;52.914;-0.982;2023-06-14T04:24:19;101559.25;;;22.23;44.45
53550;BME280;67273;52.914;-0.982;2023-06-14T04:26:49;101563.63;;;22.24;44.62
53550;BME280;67273;52.914;-0.982;2023-06-14T04:29:16;101570.44;;;22.21;44.46
53550;BME280;67273;52.914;-0.982;2023-06-14T04:31:53;101571.50;;;22.20;44.59
53550;BME280;67273;52.914;-0.982;2023-06-14T04:34:20;101567.34;;;22.17;44.61
53550;BME280;67273;52.914;-0.982;2023-06-14T04:36:54;101570.91;;;22.18;44.46
53550;BME280;67273;52.914;-0.982;2023-06-14T04:39:26;101577.72;;;22.15;44.48
53550;BME280;67273;52.914;-0.982;2023-06-14T04:41:53;101572.22;;;22.15;44.32
53550;BME280;67273;52.914;-0.982;2023-06-14T04:44:23;101576.84;;;22.15;44.46
53550;BME280;67273;52.914;-0.982;2023-06-14T04:46:58;101582.31;;;22.15;44.62
53550;BME280;67273;52.914;-0.982;2023-06-14T04:49:24;101580.44;;;22.15;44.34
53550;BME280;67273;52.914;-0.982;2023-06-14T04:51:53;101577.72;;;22.15;44.57
53550;BME280;67273;52.914;-0.982;2023-06-14T04:54:26;101578.75;;;22.14;44.49
53550;BME280;67273;52.914;-0.982;2023-06-14T04:56:52;101579.81;;;22.13;44.38
53550;BME280;67273;52.914;-0.982;2023-06-14T04:59:21;101581.75;;;22.13;44.76
53550;BME280;67273;52.914;-0.982;2023-06-14T05:01:48;101576.25;;;22.13;44.61
53550;BME280;67273;52.914;-0.982;2023-06-14T05:04:15;101579.00;;;22.13;44.64
53550;BME280;67273;52.914;-0.982;2023-06-14T05:06:41;101580.91;;;22.12;44.87
53550;BME280;67273;52.914;-0.982;2023-06-14T05:09:07;101578.19;;;22.12;44.76
53550;BME280;67273;52.914;-0.982;2023-06-14T05:11:33;101582.78;;;22.12;44.87
53550;BME280;67273;52.914;-0.982;2023-06-14T05:13:59;101576.50;;;22.11;44.98
53550;BME280;67273;52.914;-0.982;2023-06-14T05:16:26;101581.97;;;22.11;44.93
53550;BME280;67273;52.914;-0.982;2023-06-14T05:18:54;101576.50;;;22.11;45.05
53550;BME280;67273;52.914;-0.982;2023-06-14T05:21:21;101580.06;;;22.12;45.03
53550;BME280;67273;52.914;-0.982;2023-06-14T05:23:48;101578.19;;;22.12;45.09
53550;BME280;67273;52.914;-0.982;2023-06-14T05:26:14;101572.72;;;22.12;45.17
53550;BME280;67273;52.914;-0.982;2023-06-14T05:28:40;101572.13;;;22.10;45.11
53550;BME280;67273;52.914;-0.982;2023-06-14T05:31:06;101576.50;;;22.11;45.22
53550;BME280;67273;52.914;-0.982;2023-06-14T05:33:31;101571.03;;;22.11;45.23
53550;BME280;67273;52.914;-0.982;2023-06-14T05:35:57;101575.44;;;22.12;45.39
53550;BME280;67273;52.914;-0.982;2023-06-14T05:38:24;101566.38;;;22.12;45.22
53550;BME280;67273;52.914;-0.982;2023-06-14T05:40:50;101573.75;;;22.11;45.35
53550;BME280;67273;52.914;-0.982;2023-06-14T05:43:16;101571.84;;;22.12;45.41
53550;BME280;67273;52.914;-0.982;2023-06-14T05:45:42;101580.06;;;22.12;45.47
53550;BME280;67273;52.914;-0.982;2023-06-14T05:48:08;101575.44;;;22.12;45.45
53550;BME280;67273;52.914;-0.982;2023-06-14T05:50:34;101580.91;;;22.12;45.49
53550;BME280;67273;52.914;-0.982;2023-06-14T05:52:59;101577.25;;;21.95;45.86
53550;BME280;67273;52.914;-0.982;2023-06-14T05:55:27;101579.00;;;21.65;46.39
53550;BME280;67273;52.914;-0.982;2023-06-14T05:57:52;101580.69;;;21.55;46.62
53550;BME280;67273;52.914;-0.982;2023-06-14T06:00:18;101586.03;;;21.50;46.60
53550;BME280;67273;52.914;-0.982;2023-06-14T06:02:45;101580.66;;;21.43;46.65
53550;BME280;67273;52.914;-0.982;2023-06-14T06:05:14;101585.75;;;21.39;46.65
53550;BME280;67273;52.914;-0.982;2023-06-14T06:07:47;101588.72;;;21.38;46.76
53550;BME280;67273;52.914;-0.982;2023-06-14T06:10:16;101587.91;;;21.37;46.82
53550;BME280;67273;52.914;-0.982;2023-06-14T06:12:44;101596.31;;;21.36;46.94
53550;BME280;67273;52.914;-0.982;2023-06-14T06:15:10;101594.66;;;21.35;46.93
53550;BME280;67273;52.914;-0.982;2023-06-14T06:17:40;101601.44;;;21.32;46.81
53550;BME280;67273;52.914;-0.982;2023-06-14T06:20:09;101600.56;;;21.32;46.91
53550;BME280;67273;52.914;-0.982;2023-06-14T06:22:39;101603.94;;;21.34;47.15
53550;BME280;67273;52.914;-0.982;2023-06-14T06:25:10;101598.09;;;21.30;47.22
53550;BME280;67273;52.914;-0.982;2023-06-14T06:27:40;101596.44;;;21.29;47.39
53550;BME280;67273;52.914;-0.982;2023-06-14T06:30:11;101592.28;;;21.26;47.49
53550;BME280;67273;52.914;-0.982;2023-06-14T06:32:38;101597.84;;;21.32;47.37
53550;BME280;67273;52.914;-0.982;2023-06-14T06:35:04;101598.22;;;21.35;47.29
53550;BME280;67273;52.914;-0.982;2023-06-14T06:37:31;101592.75;;;21.35;47.40
53550;BME280;67273;52.914;-0.982;2023-06-14T06:39:59;101591.69;;;21.36;47.28
53550;BME280;67273;52.914;-0.982;2023-06-14T06:42:28;101588.94;;;21.36;47.18
53550;BME280;67273;52.914;-0.982;2023-06-14T06:44:59;101595.97;;;21.32;47.28
53550;BME280;67273;52.914;-0.982;2023-06-14T06:47:28;101599.38;;;21.27;47.47
53550;BME280;67273;52.914;-0.982;2023-06-14T06:49:53;101600.56;;;21.32;47.46
53550;BME280;67273;52.914;-0.982;2023-06-14T06:52:19;101599.88;;;21.36;47.46
53550;BME280;67273;52.914;-0.982;2023-06-14T06:54:45;101606.78;;;21.39;47.41
53550;BME280;67273;52.914;-0.982;2023-06-14T06:57:11;101605.13;;;21.38;47.40
53550;BME280;67273;52.914;-0.982;2023-06-14T06:59:37;101600.94;;;21.35;47.49
53550;BME280;67273;52.914;-0.982;2023-06-14T07:02:03;101597.16;;;21.36;47.54
53550;BME280;67273;52.914;-0.982;2023-06-14T07:04:30;101591.09;;;21.34;47.78
53550;BME280;67273;52.914;-0.982;2023-06-14T07:06:56;101600.94;;;21.35;47.76
53550;BME280;67273;52.914;-0.982;2023-06-14T07:09:22;101604.75;;;21.34;47.80
53550;BME280;67273;52.914;-0.982;2023-06-14T07:11:48;101608.78;;;21.32;48.02
53550;BME280;67273;52.914;-0.982;2023-06-14T07:14:14;101608.41;;;21.28;48.13
53550;BME280;67273;52.914;-0.982;2023-06-14T07:16:40;101605.09;;;21.26;48.12
53550;BME280;67273;52.914;-0.982;2023-06-14T07:19:06;101611.03;;;20.93;49.31
53550;BME280;67273;52.914;-0.982;2023-06-14T07:21:33;101603.56;;;20.69;50.15
53550;BME280;67273;52.914;-0.982;2023-06-14T07:23:59;101610.81;;;20.94;49.67
53550;BME280;67273;52.914;-0.982;2023-06-14T07:26:27;101617.28;;;21.12;49.25
53550;BME280;67273;52.914;-0.982;2023-06-14T07:28:55;101612.91;;;21.22;49.06
53550;BME280;67273;52.914;-0.982;2023-06-14T07:31:22;101615.88;;;21.21;49.42
53550;BME280;67273;52.914;-0.982;2023-06-14T07:33:51;101620.44;;;21.27;49.20
53550;BME280;67273;52.914;-0.982;2023-06-14T07:36:18;101615.09;;;21.32;49.11
53550;BME280;67273;52.914;-0.982;2023-06-14T07:38:46;101627.59;;;21.40;48.95
53550;BME280;67273;52.914;-0.982;2023-06-14T07:41:12;101628.78;;;21.44;48.96
53550;BME280;67273;52.914;-0.982;2023-06-14T07:43:38;101626.44;;;21.48;48.98
53550;BME280;67273;52.914;-0.982;2023-06-14T07:46:04;101630.25;;;21.47;49.25
53550;BME280;67273;52.914;-0.982;2023-06-14T07:48:30;101627.66;;;21.52;48.92
53550;BME280;67273;52.914;-0.982;2023-06-14T07:50:55;101626.44;;;21.48;49.43
53550;BME280;67273;52.914;-0.982;2023-06-14T07:53:23;101625.97;;;21.51;49.18
53550;BME280;67273;52.914;-0.982;2023-06-14T07:55:51;101631.22;;;21.52;49.39
53550;BME280;67273;52.914;-0.982;2023-06-14T07:58:17;101633.13;;;21.52;49.54
53550;BME280;67273;52.914;-0.982;2023-06-14T08:00:44;101624.19;;;21.56;49.60
53550;BME280;67273;52.914;-0.982;2023-06-14T08:03:12;101625.63;;;21.59;49.45
53550;BME280;67273;52.914;-0.982;2023-06-14T08:05:38;101627.88;;;21.62;49.71
53550;BME280;67273;52.914;-0.982;2023-06-14T08:08:04;101627.22;;;21.78;49.20
53550;BME280;67273;52.914;-0.982;2023-06-14T08:10:30;101633.16;;;21.87;48.97
53550;BME280;67273;52.914;-0.982;2023-06-14T08:12:57;101633.03;;;21.94;48.59
53550;BME280;67273;52.914;-0.982;2023-06-14T08:15:24;101631.38;;;21.93;48.89
53550;BME280;67273;52.914;-0.982;2023-06-14T08:17:50;101628.88;;;21.91;48.85
53550;BME280;67273;52.914;-0.982;2023-06-14T08:20:16;101638.63;;;21.99;48.45
53550;BME280;67273;52.914;-0.982;2023-06-14T08:22:42;101627.19;;;22.02;48.43
53550;BME280;67273;52.914;-0.982;2023-06-14T08:25:08;101633.84;;;22.06;48.63
53550;BME280;67273;52.914;-0.982;2023-06-14T08:27:36;101632.56;;;22.09;48.73
53550;BME280;67273;52.914;-0.982;2023-06-14T08:30:06;101630.28;;;21.94;49.08
53550;BME280;67273;52.914;-0.982;2023-06-14T08:32:34;101625.41;;;21.84;49.25
53550;BME280;67273;52.914;-0.982;2023-06-14T08:34:59;101629.00;;;21.96;49.03
53550;BME280;67273;52.914;-0.982;2023-06-14T08:37:25;101621.59;;;21.97;49.71
53550;BME280;67273;52.914;-0.982;2023-06-14T08:39:52;101627.66;;;21.99;49.61
53550;BME280;67273;52.914;-0.982;2023-06-14T08:42:19;101631.34;;;22.05;49.43
53550;BME280;67273;52.914;-0.982;2023-06-14T08:44:48;101626.00;;;22.10;49.45
53550;BME280;67273;52.914;-0.982;2023-06-14T08:47:16;101620.88;;;22.13;49.29
53550;BME280;67273;52.914;-0.982;2023-06-14T08:49:46;101619.34;;;22.17;49.40
53550;BME280;67273;52.914;-0.982;2023-06-14T08:52:16;101620.53;;;22.21;49.64
53550;BME280;67273;52.914;-0.982;2023-06-14T08:54:45;101618.38;;;22.24;49.37
53550;BME280;67273;52.914;-0.982;2023-06-14T08:57:15;101622.78;;;22.25;49.68
53550;BME280;67273;52.914;-0.982;2023-06-14T08:59:47;101610.31;;;22.29;49.53
53550;BME280;67273;52.914;-0.982;2023-06-14T09:02:16;101616.38;;;22.31;49.64
53550;BME280;67273;52.914;-0.982;2023-06-14T09:04:45;101620.78;;;22.32;49.45
53550;BME280;67273;52.914;-0.982;2023-06-14T09:07:11;101623.28;;;22.33;49.58
53550;BME280;67273;52.914;-0.982;2023-06-14T09:09:39;101611.25;;;22.34;49.57
53550;BME280;67273;52.914;-0.982;2023-06-14T09:12:07;101611.00;;;22.36;49.73
53550;BME280;67273;52.914;-0.982;2023-06-14T09:14:35;101621.47;;;22.39;49.78
53550;BME280;67273;52.914;-0.982;2023-06-14T09:17:04;101613.84;;;22.41;49.64
53550;BME280;67273;52.914;-0.982;2023-06-14T09:19:33;101614.22;;;22.45;49.73
53550;BME280;67273;52.914;-0.982;2023-06-14T09:22:00;101615.63;;;22.47;49.54
53550;BME280;67273;52.914;-0.982;2023-06-14T09:24:26;101611.56;;;22.50;49.72
53550;BME280;67273;52.914;-0.982;2023-06-14T09:26:53;101618.69;;;22.51;49.65
53550;BME280;67273;52.914;-0.982;2023-06-14T09:29:19;101609.44;;;22.52;49.67
53550;BME280;67273;52.914;-0.982;2023-06-14T09:31:46;101625.63;;;22.53;49.41
53550;BME280;67273;52.914;-0.982;2023-06-14T09:34:12;101629.06;;;22.49;49.38
53550;BME280;67273;52.914;-0.982;2023-06-14T09:36:40;101620.19;;;22.30;49.73
53550;BME280;67273;52.914;-0.982;2023-06-14T09:39:08;101628.41;;;22.30;49.99
53550;BME280;67273;52.914;-0.982;2023-06-14T09:41:34;101623.13;;;22.40;49.87
53550;BME280;67273;52.914;-0.982;2023-06-14T09:44:02;101623.81;;;22.47;49.79
53550;BME280;67273;52.914;-0.982;2023-06-14T09:46:29;101622.53;;;22.50;49.55
53550;BME280;67273;52.914;-0.982;2023-06-14T09:48:57;101616.81;;;22.51;49.46
53550;BME280;67273;52.914;-0.982;2023-06-14T09:51:25;101611.56;;;22.50;49.39
53550;BME280;67273;52.914;-0.982;2023-06-14T09:53:55;101614.06;;;22.51;49.63
53550;BME280;67273;52.914;-0.982;2023-06-14T09:56:28;101611.94;;;22.53;49.37
53550;BME280;67273;52.914;-0.982;2023-06-14T09:58:58;101617.41;;;22.53;49.15
53550;BME280;67273;52.914;-0.982;2023-06-14T10:01:27;101612.75;;;22.54;49.09
53550;BME280;67273;52.914;-0.982;2023-06-14T10:04:01;101616.31;;;22.54;49.02
53550;BME280;67273;52.914;-0.982;2023-06-14T10:06:28;101616.31;;;22.54;49.23
53550;BME280;67273;52.914;-0.982;2023-06-14T10:08:57;101614.19;;;22.56;48.97
53550;BME280;67273;52.914;-0.982;2023-06-14T10:13:51;101613.34;;;22.56;48.86
53550;BME280;67273;52.914;-0.982;2023-06-14T10:16:20;101613.34;;;22.56;49.04
53550;BME280;67273;52.914;-0.982;2023-06-14T10:18:53;101616.94;;;22.56;48.89
53550;BME280;67273;52.914;-0.982;2023-06-14T10:21:27;101611.44;;;22.56;48.88
53550;BME280;67273;52.914;-0.982;2023-06-14T10:23:59;101603.22;;;22.56;48.80
53550;BME280;67273;52.914;-0.982;2023-06-14T10:26:26;101611.22;;;22.58;48.83
53550;BME280;67273;52.914;-0.982;2023-06-14T10:28:57;101605.97;;;22.56;48.67
53550;BME280;67273;52.914;-0.982;2023-06-14T10:31:40;101611.44;;;22.56;48.61
53550;BME280;67273;52.914;-0.982;2023-06-14T10:34:07;101601.31;;;22.57;48.56
53550;BME280;67273;52.914;-0.982;2023-06-14T10:36:35;101606.56;;;22.58;48.54
53550;BME280;67273;52.914;-0.982;2023-06-14T10:39:12;101607.63;;;22.57;48.56
53550;BME280;67273;52.914;-0.982;2023-06-14T10:41:50;101609.28;;;22.58;48.50
53550;BME280;67273;52.914;-0.982;2023-06-14T10:44:41;101609.28;;;22.58;48.49
53550;BME280;67273;52.914;-0.982;2023-06-14T10:47:08;101605.47;;;22.59;48.59
53550;BME280;67273;52.914;-0.982;2023-06-14T10:49:44;101611.44;;;22.56;48.75
53550;BME280;67273;52.914;-0.982;2023-06-14T10:52:13;101602.28;;;22.51;49.25
53550;BME280;67273;52.914;-0.982;2023-06-14T10:55:06;101600.97;;;22.53;49.09
53550;BME280;67273;52.914;-0.982;2023-06-14T10:57:37;101599.28;;;22.52;49.09
53550;BME280;67273;52.914;-0.982;2023-06-14T11:00:07;101606.91;;;22.50;49.28
53550;BME280;67273;52.914;-0.982;2023-06-14T11:05:50;101601.44;;;22.50;49.34
53550;BME280;67273;52.914;-0.982;2023-06-14T11:08:34;101597.91;;;22.38;49.87
53550;BME280;67273;52.914;-0.982;2023-06-14T11:11:09;101599.94;;;22.43;49.65
53550;BME280;67273;52.914;-0.982;2023-06-14T11:13:39;101597.66;;;22.51;50.03
53550;BME280;67273;52.914;-0.982;2023-06-14T11:16:11;101590.34;;;22.69;49.39
53550;BME280;67273;52.914;-0.982;2023-06-14T11:18:39;101585.78;;;22.74;49.35
53550;BME280;67273;52.914;-0.982;2023-06-14T11:21:09;101578.38;;;22.75;49.18
53550;BME280;67273;52.914;-0.982;2023-06-14T11:23:37;101581.69;;;22.77;49.07
53550;BME280;67273;52.914;-0.982;2023-06-14T11:26:05;101578.97;;;22.77;48.87
53550;BME280;67273;52.914;-0.982;2023-06-14T11:28:41;101592.41;;;22.78;48.54
53550;BME280;67273;52.914;-0.982;2023-06-14T11:31:10;101586.13;;;22.78;48.69
53550;BME280;67273;52.914;-0.982;2023-06-14T11:33:40;101587.75;;;22.79;48.62
53550;BME280;67273;52.914;-0.982;2023-06-14T11:36:07;101592.41;;;22.78;48.63
53550;BME280;67273;52.914;-0.982;2023-06-14T11:38:39;101593.25;;;22.79;48.56
53550;BME280;67273;52.914;-0.982;2023-06-14T11:41:08;101600.41;;;22.80;48.51
53550;BME280;67273;52.914;-0.982;2023-06-14T11:43:37;101590.50;;;22.79;48.60
53550;BME280;67273;52.914;-0.982;2023-06-14T11:46:13;101590.25;;;22.81;48.50
53550;BME280;67273;52.914;-0.982;2023-06-14T11:48:45;101592.19;;;22.80;48.47
53550;BME280;67273;52.914;-0.982;2023-06-14T11:51:12;101594.91;;;22.80;48.57
53550;BME280;67273;52.914;-0.982;2023-06-14T11:53:43;101586.69;;;22.80;48.38
53550;BME280;67273;52.914;-0.982;2023-06-14T11:56:12;101588.28;;;22.76;48.58
53550;BME280;67273;52.914;-0.982;2023-06-14T11:58:40;101591.13;;;22.81;48.62
53550;BME280;67273;52.914;-0.982;2023-06-14T12:01:14;101589.81;;;22.72;49.18
53550;BME280;67273;52.914;-0.982;2023-06-14T12:03:48;101585.72;;;22.86;49.02
53550;BME280;67273;52.914;-0.982;2023-06-14T12:06:24;101577.34;;;22.93;48.90
53550;BME280;67273;52.914;-0.982;2023-06-14T12:08:56;101583.75;;;22.98;48.81
53550;BME280;67273;52.914;-0.982;2023-06-14T12:11:22;101584.34;;;23.01;48.84
53550;BME280;67273;52.914;-0.982;2023-06-14T12:13:50;101585.19;;;23.01;48.77
53550;BME280;67273;52.914;-0.982;2023-06-14T12:16:21;101588.75;;;23.02;49.31
53550;BME280;67273;52.914;-0.982;2023-06-14T12:18:49;101586.94;;;23.07;49.11
53550;BME280;67273;52.914;-0.982;2023-06-14T12:21:18;101583.72;;;23.10;49.11
53550;BME280;67273;52.914;-0.982;2023-06-14T12:23:54;101584.06;;;23.14;49.03
53550;BME280;67273;52.914;-0.982;2023-06-14T12:26:20;101585.75;;;23.15;49.31
53550;BME280;67273;52.914;-0.982;2023-06-14T12:28:48;101585.22;;;23.18;49.21
53550;BME280;67273;52.914;-0.982;2023-06-14T12:31:17;101590.69;;;23.18;49.20
53550;BME280;67273;52.914;-0.982;2023-06-14T12:33:47;101583.41;;;23.24;49.08
53550;BME280;67273;52.914;-0.982;2023-06-14T12:36:14;101586.75;;;23.26;49.22
53550;BME280;67273;52.914;-0.982;2023-06-14T12:38:41;101579.09;;;23.28;49.29
53550;BME280;67273;52.914;-0.982;2023-06-14T12:41:09;101585.16;;;23.30;49.34
53550;BME280;67273;52.914;-0.982;2023-06-14T12:43:36;101586.84;;;23.31;49.21
53550;BME280;67273;52.914;-0.982;2023-06-14T12:46:04;101586.56;;;23.32;49.36
53550;BME280;67273;52.914;-0.982;2023-06-14T12:48:31;101574.53;;;23.33;49.22
53550;BME280;67273;52.914;-0.982;2023-06-14T12:50:59;101581.69;;;23.34;49.29